Time;durP1;ratioP1;P1;durP2;ratioP2;P2;SDS_P1;SDS_P2;PMS_P1;PMS_P2;Temp;Humidity;BMP_temperature;BMP_pressure;BME280_temperature;BME280_humidity;BME280_pressure;Samples;Min_cycle;Max_cycle;Signal;HPM_P1;HPM_P2
2021/03/17 00:00:03;;;;;;;11.75;7.85;;;;;;;1.49;100;95516.13;;;;
2021/03/17 00:01:07;;;;;;;11.05;7.3;;;;;;;1.44;100;95503.44;;;;
2021/03/17 00:02:07;;;;;;;11.05;7.3;;;;;;;1.44;100;95503.44;;;;
2021/03/17 00:03:09;;;;;;;11.05;7.3;;;;;;;1.44;100;95503.44;;;;
2021/03/17 00:04:10;;;;;;;11.05;7.3;;;;;;;1.44;100;95503.44;;;;
2021/03/17 00:05:11;;;;;;;11.05;7.3;;;;;;;1.44;100;95503.44;;;;
2021/03/17 00:06:14;;;;;;;11.05;7.3;;;;;;;1.44;100;95503.44;;;;
2021/03/17 00:07:15;;;;;;;11.05;7.3;;;;;;;1.44;100;95503.44;;;;
2021/03/17 00:08:15;;;;;;;11.05;7.3;;;;;;;1.44;100;95503.44;;;;
2021/03/17 00:09:17;;;;;;;11.05;7.3;;;;;;;1.44;100;95503.44;;;;
2021/03/17 00:10:18;;;;;;;11.05;7.3;;;;;;;1.44;100;95503.44;;;;
2021/03/17 00:11:19;;;;;;;11.8;7.3;;;;;;;1.32;100;95511.49;;;;
2021/03/17 00:12:20;;;;;;;11.8;7.3;;;;;;;1.32;100;95511.49;;;;
2021/03/17 00:13:21;;;;;;;11.8;7.3;;;;;;;1.32;100;95511.49;;;;
2021/03/17 00:14:23;;;;;;;11.8;7.3;;;;;;;1.32;100;95511.49;;;;
2021/03/17 00:15:23;;;;;;;11.8;7.3;;;;;;;1.32;100;95511.49;;;;
2021/03/17 00:16:26;;;;;;;11.8;7.3;;;;;;;1.32;100;95511.49;;;;
2021/03/17 00:17:27;;;;;;;11.8;7.3;;;;;;;1.32;100;95511.49;;;;
2021/03/17 00:18:27;;;;;;;11.8;7.3;;;;;;;1.32;100;95511.49;;;;
2021/03/17 00:19:28;;;;;;;11.8;7.3;;;;;;;1.32;100;95511.49;;;;
2021/03/17 00:20:28;;;;;;;11.8;7.3;;;;;;;1.32;100;95511.49;;;;
2021/03/17 00:21:31;;;;;;;14.2;8.500001;;;;;;;1.35;100;95512.87;;;;
2021/03/17 00:22:31;;;;;;;14.2;8.500001;;;;;;;1.35;100;95512.87;;;;
2021/03/17 00:23:32;;;;;;;14.2;8.500001;;;;;;;1.35;100;95512.87;;;;
2021/03/17 00:24:32;;;;;;;14.2;8.500001;;;;;;;1.35;100;95512.87;;;;
2021/03/17 00:25:33;;;;;;;14.2;8.500001;;;;;;;1.35;100;95512.87;;;;
2021/03/17 00:26:36;;;;;;;14.2;8.500001;;;;;;;1.35;100;95512.87;;;;
2021/03/17 00:27:36;;;;;;;14.2;8.500001;;;;;;;1.35;100;95512.87;;;;
2021/03/17 00:28:37;;;;;;;14.2;8.500001;;;;;;;1.35;100;95512.87;;;;
2021/03/17 00:29:37;;;;;;;14.2;8.500001;;;;;;;1.35;100;95512.87;;;;
2021/03/17 00:30:38;;;;;;;14.2;8.500001;;;;;;;1.35;100;95512.87;;;;
2021/03/17 00:31:40;;;;;;;14.2;8.500001;;;;;;;1.35;100;95512.87;;;;
2021/03/17 00:32:41;;;;;;;11.15;7.900001;;;;;;;1.44;100;95501.68;;;;
2021/03/17 00:33:41;;;;;;;11.15;7.900001;;;;;;;1.44;100;95501.68;;;;
2021/03/17 00:34:42;;;;;;;11.15;7.900001;;;;;;;1.44;100;95501.68;;;;
2021/03/17 00:35:43;;;;;;;11.15;7.900001;;;;;;;1.44;100;95501.68;;;;
2021/03/17 00:36:43;;;;;;;11.15;7.900001;;;;;;;1.44;100;95501.68;;;;
2021/03/17 00:37:44;;;;;;;11.15;7.900001;;;;;;;1.44;100;95501.68;;;;
2021/03/17 00:38:45;;;;;;;11.15;7.900001;;;;;;;1.44;100;95501.68;;;;
2021/03/17 00:39:45;;;;;;;11.15;7.900001;;;;;;;1.44;100;95501.68;;;;
2021/03/17 00:40:46;;;;;;;11.15;7.900001;;;;;;;1.44;100;95501.68;;;;
2021/03/17 00:41:46;;;;;;;11.15;7.900001;;;;;;;1.44;100;95501.68;;;;
2021/03/17 00:42:47;;;;;;;11.15;7.900001;;;;;;;1.44;100;95501.68;;;;
2021/03/17 00:43:47;;;;;;;11.85;8.6;;;;;;;1.51;100;95484.44;;;;
2021/03/17 00:44:48;;;;;;;11.85;8.6;;;;;;;1.51;100;95484.44;;;;
2021/03/17 00:45:48;;;;;;;11.85;8.6;;;;;;;1.51;100;95484.44;;;;
2021/03/17 00:46:49;;;;;;;11.85;8.6;;;;;;;1.51;100;95484.44;;;;
2021/03/17 00:47:50;;;;;;;11.85;8.6;;;;;;;1.51;100;95484.44;;;;
2021/03/17 00:48:51;;;;;;;11.85;8.6;;;;;;;1.51;100;95484.44;;;;
2021/03/17 00:49:51;;;;;;;11.85;8.6;;;;;;;1.51;100;95484.44;;;;
2021/03/17 00:50:52;;;;;;;11.85;8.6;;;;;;;1.51;100;95484.44;;;;
2021/03/17 00:51:52;;;;;;;11.85;8.6;;;;;;;1.51;100;95484.44;;;;
2021/03/17 00:52:53;;;;;;;11.85;8.6;;;;;;;1.51;100;95484.44;;;;
2021/03/17 00:53:54;;;;;;;12.1;8.9;;;;;;;1.57;100;95482;;;;
2021/03/17 00:54:55;;;;;;;12.1;8.9;;;;;;;1.57;100;95482;;;;
2021/03/17 00:55:56;;;;;;;12.1;8.9;;;;;;;1.57;100;95482;;;;
2021/03/17 00:56:56;;;;;;;12.1;8.9;;;;;;;1.57;100;95482;;;;
2021/03/17 00:57:57;;;;;;;12.1;8.9;;;;;;;1.57;100;95482;;;;
2021/03/17 00:58:58;;;;;;;12.1;8.9;;;;;;;1.57;100;95482;;;;
2021/03/17 00:59:58;;;;;;;12.1;8.9;;;;;;;1.57;100;95482;;;;
2021/03/17 01:00:58;;;;;;;12.1;8.9;;;;;;;1.57;100;95482;;;;
2021/03/17 01:01:59;;;;;;;12.1;8.9;;;;;;;1.57;100;95482;;;;
2021/03/17 01:03:00;;;;;;;12.1;8.9;;;;;;;1.57;100;95482;;;;
2021/03/17 01:04:00;;;;;;;12.1;8.9;;;;;;;1.57;100;95482;;;;
2021/03/17 01:05:01;;;;;;;14.8;8.699999;;;;;;;1.61;100;95480.22;;;;
2021/03/17 01:06:02;;;;;;;14.8;8.699999;;;;;;;1.61;100;95480.22;;;;
2021/03/17 01:07:03;;;;;;;14.8;8.699999;;;;;;;1.61;100;95480.22;;;;
2021/03/17 01:08:04;;;;;;;14.8;8.699999;;;;;;;1.61;100;95480.22;;;;
2021/03/17 01:09:05;;;;;;;14.8;8.699999;;;;;;;1.61;100;95480.22;;;;
2021/03/17 01:10:06;;;;;;;14.8;8.699999;;;;;;;1.61;100;95480.22;;;;
2021/03/17 01:11:09;;;;;;;14.8;8.699999;;;;;;;1.61;100;95480.22;;;;
2021/03/17 01:12:10;;;;;;;14.8;8.699999;;;;;;;1.61;100;95480.22;;;;
2021/03/17 01:13:11;;;;;;;14.8;8.699999;;;;;;;1.61;100;95480.22;;;;
2021/03/17 01:14:12;;;;;;;14.8;8.699999;;;;;;;1.61;100;95480.22;;;;
2021/03/17 01:15:13;;;;;;;12.9;8.500002;;;;;;;1.53;100;95467.8;;;;
2021/03/17 01:16:17;;;;;;;12.9;8.500002;;;;;;;1.53;100;95467.8;;;;
2021/03/17 01:17:18;;;;;;;12.9;8.500002;;;;;;;1.53;100;95467.8;;;;
2021/03/17 01:18:18;;;;;;;12.9;8.500002;;;;;;;1.53;100;95467.8;;;;
2021/03/17 01:19:19;;;;;;;12.9;8.500002;;;;;;;1.53;100;95467.8;;;;
2021/03/17 01:20:19;;;;;;;12.9;8.500002;;;;;;;1.53;100;95467.8;;;;
2021/03/17 01:21:23;;;;;;;12.9;8.500002;;;;;;;1.53;100;95467.8;;;;
2021/03/17 01:22:23;;;;;;;12.9;8.500002;;;;;;;1.53;100;95467.8;;;;
2021/03/17 01:23:24;;;;;;;12.9;8.500002;;;;;;;1.53;100;95467.8;;;;
2021/03/17 01:24:25;;;;;;;12.9;8.500002;;;;;;;1.53;100;95467.8;;;;
2021/03/17 01:25:25;;;;;;;12.9;8.500002;;;;;;;1.53;100;95467.8;;;;
2021/03/17 01:26:29;;;;;;;12.1;7.900001;;;;;;;1.41;100;95450.17;;;;
2021/03/17 01:27:30;;;;;;;12.1;7.900001;;;;;;;1.41;100;95450.17;;;;
2021/03/17 01:28:30;;;;;;;12.1;7.900001;;;;;;;1.41;100;95450.17;;;;
2021/03/17 01:29:31;;;;;;;12.1;7.900001;;;;;;;1.41;100;95450.17;;;;
2021/03/17 01:30:32;;;;;;;12.1;7.900001;;;;;;;1.41;100;95450.17;;;;
2021/03/17 01:31:35;;;;;;;12.1;7.900001;;;;;;;1.41;100;95450.17;;;;
2021/03/17 01:32:35;;;;;;;12.1;7.900001;;;;;;;1.41;100;95450.17;;;;
2021/03/17 01:33:36;;;;;;;12.1;7.900001;;;;;;;1.41;100;95450.17;;;;
2021/03/17 01:34:37;;;;;;;12.1;7.900001;;;;;;;1.41;100;95450.17;;;;
2021/03/17 01:35:38;;;;;;;12.1;7.900001;;;;;;;1.41;100;95450.17;;;;
2021/03/17 01:36:39;;;;;;;15.4;8.55;;;;;;;1.41;100;95450.59;;;;
2021/03/17 01:37:40;;;;;;;15.4;8.55;;;;;;;1.41;100;95450.59;;;;
2021/03/17 01:38:41;;;;;;;15.4;8.55;;;;;;;1.41;100;95450.59;;;;
2021/03/17 01:39:41;;;;;;;15.4;8.55;;;;;;;1.41;100;95450.59;;;;
2021/03/17 01:40:42;;;;;;;15.4;8.55;;;;;;;1.41;100;95450.59;;;;
2021/03/17 01:41:44;;;;;;;15.4;8.55;;;;;;;1.41;100;95450.59;;;;
2021/03/17 01:42:45;;;;;;;15.4;8.55;;;;;;;1.41;100;95450.59;;;;
2021/03/17 01:43:45;;;;;;;15.4;8.55;;;;;;;1.41;100;95450.59;;;;
2021/03/17 01:44:46;;;;;;;15.4;8.55;;;;;;;1.41;100;95450.59;;;;
2021/03/17 01:45:46;;;;;;;15.4;8.55;;;;;;;1.41;100;95450.59;;;;
2021/03/17 01:46:47;;;;;;;15.4;8.55;;;;;;;1.41;100;95450.59;;;;
2021/03/17 01:47:48;;;;;;;13.05;8.35;;;;;;;1.42;100;95436.8;;;;
2021/03/17 01:48:50;;;;;;;13.05;8.35;;;;;;;1.42;100;95436.8;;;;
2021/03/17 01:49:51;;;;;;;13.05;8.35;;;;;;;1.42;100;95436.8;;;;
2021/03/17 01:50:51;;;;;;;13.05;8.35;;;;;;;1.42;100;95436.8;;;;
2021/03/17 01:51:55;;;;;;;13.05;8.35;;;;;;;1.42;100;95436.8;;;;
2021/03/17 01:52:55;;;;;;;13.05;8.35;;;;;;;1.42;100;95436.8;;;;
2021/03/17 01:54:05;;;;;;;13.05;8.35;;;;;;;1.42;100;95436.8;;;;
2021/03/17 01:55:07;;;;;;;13.05;8.35;;;;;;;1.42;100;95436.8;;;;
2021/03/17 01:56:09;;;;;;;13.05;8.35;;;;;;;1.42;100;95436.8;;;;
2021/03/17 01:57:10;;;;;;;13.05;8.35;;;;;;;1.42;100;95436.8;;;;
2021/03/17 01:58:11;;;;;;;14.5;8.65;;;;;;;1.4;100;95430.33;;;;
2021/03/17 01:59:12;;;;;;;14.5;8.65;;;;;;;1.4;100;95430.33;;;;
2021/03/17 02:00:12;;;;;;;14.5;8.65;;;;;;;1.4;100;95430.33;;;;
2021/03/17 02:01:15;;;;;;;14.5;8.65;;;;;;;1.4;100;95430.33;;;;
2021/03/17 02:02:17;;;;;;;14.5;8.65;;;;;;;1.4;100;95430.33;;;;
2021/03/17 02:03:18;;;;;;;14.5;8.65;;;;;;;1.4;100;95430.33;;;;
2021/03/17 02:04:19;;;;;;;14.5;8.65;;;;;;;1.4;100;95430.33;;;;
2021/03/17 02:05:19;;;;;;;14.5;8.65;;;;;;;1.4;100;95430.33;;;;
2021/03/17 02:06:22;;;;;;;14.5;8.65;;;;;;;1.4;100;95430.33;;;;
2021/03/17 02:07:22;;;;;;;14.5;8.65;;;;;;;1.4;100;95430.33;;;;
2021/03/17 02:08:23;;;;;;;13.95;9.200002;;;;;;;1.32;100;95420.23;;;;
2021/03/17 02:09:26;;;;;;;13.95;9.200002;;;;;;;1.32;100;95420.23;;;;
2021/03/17 02:10:27;;;;;;;13.95;9.200002;;;;;;;1.32;100;95420.23;;;;
2021/03/17 02:11:29;;;;;;;13.95;9.200002;;;;;;;1.32;100;95420.23;;;;
2021/03/17 02:12:30;;;;;;;13.95;9.200002;;;;;;;1.32;100;95420.23;;;;
2021/03/17 02:13:42;;;;;;;13.95;9.200002;;;;;;;1.32;100;95420.23;;;;
2021/03/17 02:14:55;;;;;;;13.95;9.200002;;;;;;;1.32;100;95420.23;;;;
2021/03/17 02:16:06;;;;;;;13.95;9.200002;;;;;;;1.32;100;95420.23;;;;
2021/03/17 02:17:13;;;;;;;13.95;9.200002;;;;;;;1.32;100;95420.23;;;;
2021/03/17 02:18:18;;;;;;;13.95;9.200002;;;;;;;1.32;100;95420.23;;;;
2021/03/17 02:19:30;;;;;;;16.5;9.400001;;;;;;;1.28;100;95409.64;;;;
2021/03/17 02:20:56;;;;;;;16.5;9.400001;;;;;;;1.28;100;95409.64;;;;
2021/03/17 02:26:15;;;;;;;16.5;9.400001;;;;;;;1.28;100;95409.64;;;;
2021/03/17 02:27:39;;;;;;;16.5;9.400001;;;;;;;1.28;100;95409.64;;;;
2021/03/17 02:33:02;;;;;;;16.25;9.700001;;;;;;;1.26;100;95400.9;;;;
2021/03/17 02:36:49;;;;;;;16.25;9.700001;;;;;;;1.26;100;95400.9;;;;
2021/03/17 02:37:53;;;;;;;16.25;9.700001;;;;;;;1.26;100;95400.9;;;;
2021/03/17 02:38:56;;;;;;;16.25;9.700001;;;;;;;1.26;100;95400.9;;;;
2021/03/17 02:40:04;;;;;;;16.25;9.700001;;;;;;;1.26;100;95400.9;;;;
2021/03/17 02:41:11;;;;;;;14.9;9.4;;;;;;;1.23;100;95400.42;;;;
2021/03/17 02:42:18;;;;;;;14.9;9.4;;;;;;;1.23;100;95400.42;;;;
2021/03/17 02:43:22;;;;;;;14.9;9.4;;;;;;;1.23;100;95400.42;;;;
2021/03/17 02:44:29;;;;;;;14.9;9.4;;;;;;;1.23;100;95400.42;;;;
2021/03/17 02:45:30;;;;;;;14.9;9.4;;;;;;;1.23;100;95400.42;;;;
2021/03/17 02:46:35;;;;;;;14.9;9.4;;;;;;;1.23;100;95400.42;;;;
2021/03/17 02:47:38;;;;;;;14.9;9.4;;;;;;;1.23;100;95400.42;;;;
2021/03/17 02:48:47;;;;;;;14.9;9.4;;;;;;;1.23;100;95400.42;;;;
2021/03/17 02:49:55;;;;;;;14.9;9.4;;;;;;;1.23;100;95400.42;;;;
2021/03/17 02:50:59;;;;;;;14.95;8.799999;;;;;;;1.2;100;95395.47;;;;
2021/03/17 02:52:03;;;;;;;14.95;8.799999;;;;;;;1.2;100;95395.47;;;;
2021/03/17 02:53:05;;;;;;;14.95;8.799999;;;;;;;1.2;100;95395.47;;;;
2021/03/17 02:54:08;;;;;;;14.95;8.799999;;;;;;;1.2;100;95395.47;;;;
2021/03/17 02:55:12;;;;;;;14.95;8.799999;;;;;;;1.2;100;95395.47;;;;
2021/03/17 02:56:15;;;;;;;14.95;8.799999;;;;;;;1.2;100;95395.47;;;;
2021/03/17 02:57:17;;;;;;;14.95;8.799999;;;;;;;1.2;100;95395.47;;;;
2021/03/17 02:58:19;;;;;;;14.95;8.799999;;;;;;;1.2;100;95395.47;;;;
2021/03/17 02:59:20;;;;;;;14.95;8.799999;;;;;;;1.2;100;95395.47;;;;
2021/03/17 03:00:23;;;;;;;14.95;8.799999;;;;;;;1.2;100;95395.47;;;;
2021/03/17 03:01:26;;;;;;;14.95;8.799999;;;;;;;1.2;100;95395.47;;;;
2021/03/17 03:02:31;;;;;;;20.6;11;;;;;;;1.19;100;95394.21;;;;
2021/03/17 03:03:32;;;;;;;20.6;11;;;;;;;1.19;100;95394.21;;;;
2021/03/17 03:04:34;;;;;;;20.6;11;;;;;;;1.19;100;95394.21;;;;
2021/03/17 03:05:36;;;;;;;20.6;11;;;;;;;1.19;100;95394.21;;;;
2021/03/17 03:06:38;;;;;;;20.6;11;;;;;;;1.19;100;95394.21;;;;
2021/03/17 03:07:41;;;;;;;20.6;11;;;;;;;1.19;100;95394.21;;;;
2021/03/17 03:08:46;;;;;;;20.6;11;;;;;;;1.19;100;95394.21;;;;
2021/03/17 03:09:48;;;;;;;20.6;11;;;;;;;1.19;100;95394.21;;;;
2021/03/17 03:10:50;;;;;;;20.6;11;;;;;;;1.19;100;95394.21;;;;
2021/03/17 03:11:51;;;;;;;20.6;11;;;;;;;1.19;100;95394.21;;;;
2021/03/17 03:12:53;;;;;;;16.65;10.2;;;;;;;1.21;100;95397.94;;;;
2021/03/17 03:13:55;;;;;;;16.65;10.2;;;;;;;1.21;100;95397.94;;;;
2021/03/17 03:14:57;;;;;;;16.65;10.2;;;;;;;1.21;100;95397.94;;;;
2021/03/17 03:15:57;;;;;;;16.65;10.2;;;;;;;1.21;100;95397.94;;;;
2021/03/17 03:16:58;;;;;;;16.65;10.2;;;;;;;1.21;100;95397.94;;;;
2021/03/17 03:18:01;;;;;;;16.65;10.2;;;;;;;1.21;100;95397.94;;;;
2021/03/17 03:19:04;;;;;;;16.65;10.2;;;;;;;1.21;100;95397.94;;;;
2021/03/17 03:20:06;;;;;;;16.65;10.2;;;;;;;1.21;100;95397.94;;;;
2021/03/17 03:21:10;;;;;;;16.65;10.2;;;;;;;1.21;100;95397.94;;;;
2021/03/17 03:22:11;;;;;;;16.65;10.2;;;;;;;1.21;100;95397.94;;;;
2021/03/17 03:23:13;;;;;;;18.15;11.1;;;;;;;1.22;100;95388.95;;;;
2021/03/17 03:24:17;;;;;;;18.15;11.1;;;;;;;1.22;100;95388.95;;;;
2021/03/17 03:25:18;;;;;;;18.15;11.1;;;;;;;1.22;100;95388.95;;;;
2021/03/17 03:26:19;;;;;;;18.15;11.1;;;;;;;1.22;100;95388.95;;;;
2021/03/17 03:27:21;;;;;;;18.15;11.1;;;;;;;1.22;100;95388.95;;;;
2021/03/17 03:28:23;;;;;;;18.15;11.1;;;;;;;1.22;100;95388.95;;;;
2021/03/17 03:29:24;;;;;;;18.15;11.1;;;;;;;1.22;100;95388.95;;;;
2021/03/17 03:30:26;;;;;;;18.15;11.1;;;;;;;1.22;100;95388.95;;;;
2021/03/17 03:31:28;;;;;;;18.15;11.1;;;;;;;1.22;100;95388.95;;;;
2021/03/17 03:32:29;;;;;;;18.15;11.1;;;;;;;1.22;100;95388.95;;;;
2021/03/17 03:33:29;;;;;;;18.15;11.1;;;;;;;1.22;100;95388.95;;;;
2021/03/17 03:34:30;;;;;;;16.95;10.8;;;;;;;1.23;100;95391.53;;;;
2021/03/17 03:35:31;;;;;;;16.95;10.8;;;;;;;1.23;100;95391.53;;;;
2021/03/17 03:36:32;;;;;;;16.95;10.8;;;;;;;1.23;100;95391.53;;;;
2021/03/17 03:37:32;;;;;;;16.95;10.8;;;;;;;1.23;100;95391.53;;;;
2021/03/17 03:38:34;;;;;;;16.95;10.8;;;;;;;1.23;100;95391.53;;;;
2021/03/17 03:39:35;;;;;;;16.95;10.8;;;;;;;1.23;100;95391.53;;;;
2021/03/17 03:40:35;;;;;;;16.95;10.8;;;;;;;1.23;100;95391.53;;;;
2021/03/17 03:41:37;;;;;;;16.95;10.8;;;;;;;1.23;100;95391.53;;;;
2021/03/17 03:42:38;;;;;;;16.95;10.8;;;;;;;1.23;100;95391.53;;;;
2021/03/17 03:43:38;;;;;;;16.95;10.8;;;;;;;1.23;100;95391.53;;;;
2021/03/17 03:44:39;;;;;;;18.9;11.85;;;;;;;1.23;100;95394.2;;;;
2021/03/17 03:45:40;;;;;;;18.9;11.85;;;;;;;1.23;100;95394.2;;;;
2021/03/17 03:46:41;;;;;;;18.9;11.85;;;;;;;1.23;100;95394.2;;;;
2021/03/17 03:47:42;;;;;;;18.9;11.85;;;;;;;1.23;100;95394.2;;;;
2021/03/17 03:48:44;;;;;;;18.9;11.85;;;;;;;1.23;100;95394.2;;;;
2021/03/17 03:49:44;;;;;;;18.9;11.85;;;;;;;1.23;100;95394.2;;;;
2021/03/17 03:50:45;;;;;;;18.9;11.85;;;;;;;1.23;100;95394.2;;;;
2021/03/17 03:51:48;;;;;;;18.9;11.85;;;;;;;1.23;100;95394.2;;;;
2021/03/17 03:52:59;;;;;;;18.9;11.85;;;;;;;1.23;100;95394.2;;;;
2021/03/17 03:54:09;;;;;;;18.9;11.85;;;;;;;1.23;100;95394.2;;;;
2021/03/17 03:55:18;;;;;;;20.05;12.55;;;;;;;1.27;100;95392.85;;;;
2021/03/17 03:56:24;;;;;;;20.05;12.55;;;;;;;1.27;100;95392.85;;;;
2021/03/17 03:57:30;;;;;;;20.05;12.55;;;;;;;1.27;100;95392.85;;;;
2021/03/17 03:58:36;;;;;;;20.05;12.55;;;;;;;1.27;100;95392.85;;;;
2021/03/17 03:59:43;;;;;;;20.05;12.55;;;;;;;1.27;100;95392.85;;;;
2021/03/17 04:00:47;;;;;;;20.05;12.55;;;;;;;1.27;100;95392.85;;;;
2021/03/17 04:01:49;;;;;;;20.05;12.55;;;;;;;1.27;100;95392.85;;;;
2021/03/17 04:02:55;;;;;;;20.05;12.55;;;;;;;1.27;100;95392.85;;;;
2021/03/17 04:04:01;;;;;;;20.05;12.55;;;;;;;1.27;100;95392.85;;;;
2021/03/17 04:05:07;;;;;;;20.05;12.55;;;;;;;1.27;100;95392.85;;;;
2021/03/17 04:06:10;;;;;;;18.5;11.2;;;;;;;1.3;100;95397.8;;;;
2021/03/17 04:07:13;;;;;;;18.5;11.2;;;;;;;1.3;100;95397.8;;;;
2021/03/17 04:08:15;;;;;;;18.5;11.2;;;;;;;1.3;100;95397.8;;;;
2021/03/17 04:09:18;;;;;;;18.5;11.2;;;;;;;1.3;100;95397.8;;;;
2021/03/17 04:10:24;;;;;;;18.5;11.2;;;;;;;1.3;100;95397.8;;;;
2021/03/17 04:11:26;;;;;;;18.5;11.2;;;;;;;1.3;100;95397.8;;;;
2021/03/17 04:12:27;;;;;;;18.5;11.2;;;;;;;1.3;100;95397.8;;;;
2021/03/17 04:13:28;;;;;;;18.5;11.2;;;;;;;1.3;100;95397.8;;;;
2021/03/17 04:14:32;;;;;;;18.5;11.2;;;;;;;1.3;100;95397.8;;;;
2021/03/17 04:15:34;;;;;;;18.5;11.2;;;;;;;1.3;100;95397.8;;;;
2021/03/17 04:16:37;;;;;;;15.75;9.299999;;;;;;;1.27;100;95411.04;;;;
2021/03/17 04:17:40;;;;;;;15.75;9.299999;;;;;;;1.27;100;95411.04;;;;
2021/03/17 04:18:48;;;;;;;15.75;9.299999;;;;;;;1.27;100;95411.04;;;;
2021/03/17 04:19:50;;;;;;;15.75;9.299999;;;;;;;1.27;100;95411.04;;;;
2021/03/17 04:20:57;;;;;;;15.75;9.299999;;;;;;;1.27;100;95411.04;;;;
2021/03/17 04:22:06;;;;;;;15.75;9.299999;;;;;;;1.27;100;95411.04;;;;
2021/03/17 04:23:08;;;;;;;15.75;9.299999;;;;;;;1.27;100;95411.04;;;;
2021/03/17 04:24:11;;;;;;;15.75;9.299999;;;;;;;1.27;100;95411.04;;;;
2021/03/17 04:25:14;;;;;;;15.75;9.299999;;;;;;;1.27;100;95411.04;;;;
2021/03/17 04:26:17;;;;;;;15.75;9.299999;;;;;;;1.27;100;95411.04;;;;
2021/03/17 04:27:21;;;;;;;8.9;5.900001;;;;;;;1.17;100;95400.73;;;;
2021/03/17 04:28:23;;;;;;;8.9;5.900001;;;;;;;1.17;100;95400.73;;;;
2021/03/17 04:29:27;;;;;;;8.9;5.900001;;;;;;;1.17;100;95400.73;;;;
2021/03/17 04:30:28;;;;;;;8.9;5.900001;;;;;;;1.17;100;95400.73;;;;
2021/03/17 04:31:29;;;;;;;8.9;5.900001;;;;;;;1.17;100;95400.73;;;;
2021/03/17 04:32:30;;;;;;;8.9;5.900001;;;;;;;1.17;100;95400.73;;;;
2021/03/17 04:33:33;;;;;;;8.9;5.900001;;;;;;;1.17;100;95400.73;;;;
2021/03/17 04:34:36;;;;;;;8.9;5.900001;;;;;;;1.17;100;95400.73;;;;
2021/03/17 04:35:37;;;;;;;8.9;5.900001;;;;;;;1.17;100;95400.73;;;;
2021/03/17 04:36:39;;;;;;;8.9;5.900001;;;;;;;1.17;100;95400.73;;;;
2021/03/17 04:37:40;;;;;;;11.8;6.500001;;;;;;;1.08;100;95395.56;;;;
2021/03/17 04:38:46;;;;;;;11.8;6.500001;;;;;;;1.08;100;95395.56;;;;
2021/03/17 04:39:48;;;;;;;11.8;6.500001;;;;;;;1.08;100;95395.56;;;;
2021/03/17 04:40:51;;;;;;;11.8;6.500001;;;;;;;1.08;100;95395.56;;;;
2021/03/17 04:41:52;;;;;;;11.8;6.500001;;;;;;;1.08;100;95395.56;;;;
2021/03/17 04:42:56;;;;;;;11.8;6.500001;;;;;;;1.08;100;95395.56;;;;
2021/03/17 04:43:57;;;;;;;11.8;6.500001;;;;;;;1.08;100;95395.56;;;;
2021/03/17 04:44:57;;;;;;;11.8;6.500001;;;;;;;1.08;100;95395.56;;;;
2021/03/17 04:45:59;;;;;;;11.8;6.500001;;;;;;;1.08;100;95395.56;;;;
2021/03/17 04:47:01;;;;;;;11.8;6.500001;;;;;;;1.08;100;95395.56;;;;
2021/03/17 04:48:03;;;;;;;11.8;6.500001;;;;;;;1.08;100;95395.56;;;;
2021/03/17 04:49:06;;;;;;;12.15;6.099999;;;;;;;1.05;100;95400.29;;;;
2021/03/17 04:50:08;;;;;;;12.15;6.099999;;;;;;;1.05;100;95400.29;;;;
2021/03/17 04:51:12;;;;;;;12.15;6.099999;;;;;;;1.05;100;95400.29;;;;
2021/03/17 04:52:16;;;;;;;12.15;6.099999;;;;;;;1.05;100;95400.29;;;;
2021/03/17 04:53:19;;;;;;;12.15;6.099999;;;;;;;1.05;100;95400.29;;;;
2021/03/17 04:54:19;;;;;;;12.15;6.099999;;;;;;;1.05;100;95400.29;;;;
2021/03/17 04:55:20;;;;;;;12.15;6.099999;;;;;;;1.05;100;95400.29;;;;
2021/03/17 04:56:21;;;;;;;12.15;6.099999;;;;;;;1.05;100;95400.29;;;;
2021/03/17 04:57:25;;;;;;;12.15;6.099999;;;;;;;1.05;100;95400.29;;;;
2021/03/17 04:58:29;;;;;;;12.15;6.099999;;;;;;;1.05;100;95400.29;;;;
2021/03/17 04:59:31;;;;;;;8.85;5.650001;;;;;;;1.09;100;95391.88;;;;
2021/03/17 05:00:35;;;;;;;8.85;5.650001;;;;;;;1.09;100;95391.88;;;;
2021/03/17 05:01:36;;;;;;;8.85;5.650001;;;;;;;1.09;100;95391.88;;;;
2021/03/17 05:02:42;;;;;;;8.85;5.650001;;;;;;;1.09;100;95391.88;;;;
2021/03/17 05:03:47;;;;;;;8.85;5.650001;;;;;;;1.09;100;95391.88;;;;
2021/03/17 05:04:49;;;;;;;8.85;5.650001;;;;;;;1.09;100;95391.88;;;;
2021/03/17 05:05:52;;;;;;;8.85;5.650001;;;;;;;1.09;100;95391.88;;;;
2021/03/17 05:06:54;;;;;;;8.85;5.650001;;;;;;;1.09;100;95391.88;;;;
2021/03/17 05:07:56;;;;;;;8.85;5.650001;;;;;;;1.09;100;95391.88;;;;
2021/03/17 05:08:58;;;;;;;8.85;5.650001;;;;;;;1.09;100;95391.88;;;;
2021/03/17 05:10:01;;;;;;;10.9;6.15;;;;;;;1.11;100;95400.51;;;;
2021/03/17 05:11:04;;;;;;;10.9;6.15;;;;;;;1.11;100;95400.51;;;;
2021/03/17 05:12:05;;;;;;;10.9;6.15;;;;;;;1.11;100;95400.51;;;;
2021/03/17 05:13:08;;;;;;;10.9;6.15;;;;;;;1.11;100;95400.51;;;;
2021/03/17 05:14:11;;;;;;;10.9;6.15;;;;;;;1.11;100;95400.51;;;;
2021/03/17 05:15:13;;;;;;;10.9;6.15;;;;;;;1.11;100;95400.51;;;;
2021/03/17 05:16:14;;;;;;;10.9;6.15;;;;;;;1.11;100;95400.51;;;;
2021/03/17 05:17:15;;;;;;;10.9;6.15;;;;;;;1.11;100;95400.51;;;;
2021/03/17 05:18:20;;;;;;;10.9;6.15;;;;;;;1.11;100;95400.51;;;;
2021/03/17 05:19:22;;;;;;;10.9;6.15;;;;;;;1.11;100;95400.51;;;;
2021/03/17 05:20:22;;;;;;;10.1;6.25;;;;;;;1.11;100;95415.97;;;;
2021/03/17 05:21:24;;;;;;;10.1;6.25;;;;;;;1.11;100;95415.97;;;;
2021/03/17 05:22:26;;;;;;;10.1;6.25;;;;;;;1.11;100;95415.97;;;;
2021/03/17 05:23:28;;;;;;;10.1;6.25;;;;;;;1.11;100;95415.97;;;;
2021/03/17 05:24:29;;;;;;;10.1;6.25;;;;;;;1.11;100;95415.97;;;;
2021/03/17 05:25:30;;;;;;;10.1;6.25;;;;;;;1.11;100;95415.97;;;;
2021/03/17 05:26:31;;;;;;;10.1;6.25;;;;;;;1.11;100;95415.97;;;;
2021/03/17 05:27:34;;;;;;;10.1;6.25;;;;;;;1.11;100;95415.97;;;;
2021/03/17 05:28:36;;;;;;;10.1;6.25;;;;;;;1.11;100;95415.97;;;;
2021/03/17 05:29:39;;;;;;;10.1;6.25;;;;;;;1.11;100;95415.97;;;;
2021/03/17 05:30:42;;;;;;;10.1;6.25;;;;;;;1.11;100;95415.97;;;;
2021/03/17 05:31:46;;;;;;;11.45;6.849999;;;;;;;1.13;100;95417.95;;;;
2021/03/17 05:32:48;;;;;;;11.45;6.849999;;;;;;;1.13;100;95417.95;;;;
2021/03/17 05:33:49;;;;;;;11.45;6.849999;;;;;;;1.13;100;95417.95;;;;
2021/03/17 05:34:51;;;;;;;11.45;6.849999;;;;;;;1.13;100;95417.95;;;;
2021/03/17 05:35:57;;;;;;;11.45;6.849999;;;;;;;1.13;100;95417.95;;;;
2021/03/17 05:36:57;;;;;;;11.45;6.849999;;;;;;;1.13;100;95417.95;;;;
2021/03/17 05:37:58;;;;;;;11.45;6.849999;;;;;;;1.13;100;95417.95;;;;
2021/03/17 05:39:00;;;;;;;11.45;6.849999;;;;;;;1.13;100;95417.95;;;;
2021/03/17 05:40:00;;;;;;;11.45;6.849999;;;;;;;1.13;100;95417.95;;;;
2021/03/17 05:41:02;;;;;;;11.45;6.849999;;;;;;;1.13;100;95417.95;;;;
2021/03/17 05:42:03;;;;;;;13.05;7.6;;;;;;;1.08;100;95420.7;;;;
2021/03/17 05:43:04;;;;;;;13.05;7.6;;;;;;;1.08;100;95420.7;;;;
2021/03/17 05:44:08;;;;;;;13.05;7.6;;;;;;;1.08;100;95420.7;;;;
2021/03/17 05:45:09;;;;;;;13.05;7.6;;;;;;;1.08;100;95420.7;;;;
2021/03/17 05:46:13;;;;;;;13.05;7.6;;;;;;;1.08;100;95420.7;;;;
2021/03/17 05:47:14;;;;;;;13.05;7.6;;;;;;;1.08;100;95420.7;;;;
2021/03/17 05:48:15;;;;;;;13.05;7.6;;;;;;;1.08;100;95420.7;;;;
2021/03/17 05:49:16;;;;;;;13.05;7.6;;;;;;;1.08;100;95420.7;;;;
2021/03/17 05:50:18;;;;;;;13.05;7.6;;;;;;;1.08;100;95420.7;;;;
2021/03/17 05:51:21;;;;;;;13.05;7.6;;;;;;;1.08;100;95420.7;;;;
2021/03/17 05:52:21;;;;;;;14.35;8.200001;;;;;;;1.11;100;95428.42;;;;
2021/03/17 05:53:22;;;;;;;14.35;8.200001;;;;;;;1.11;100;95428.42;;;;
2021/03/17 05:54:23;;;;;;;14.35;8.200001;;;;;;;1.11;100;95428.42;;;;
2021/03/17 05:55:24;;;;;;;14.35;8.200001;;;;;;;1.11;100;95428.42;;;;
2021/03/17 05:56:25;;;;;;;14.35;8.200001;;;;;;;1.11;100;95428.42;;;;
2021/03/17 05:57:25;;;;;;;14.35;8.200001;;;;;;;1.11;100;95428.42;;;;
2021/03/17 05:58:27;;;;;;;14.35;8.200001;;;;;;;1.11;100;95428.42;;;;
2021/03/17 05:59:29;;;;;;;14.35;8.200001;;;;;;;1.11;100;95428.42;;;;
2021/03/17 06:00:30;;;;;;;14.35;8.200001;;;;;;;1.11;100;95428.42;;;;
2021/03/17 06:01:31;;;;;;;14.35;8.200001;;;;;;;1.11;100;95428.42;;;;
2021/03/17 06:02:32;;;;;;;14.35;8.200001;;;;;;;1.11;100;95428.42;;;;
2021/03/17 06:03:33;;;;;;;14.35;8.450001;;;;;;;1.17;100;95423.22;;;;
2021/03/17 06:04:36;;;;;;;14.35;8.450001;;;;;;;1.17;100;95423.22;;;;
2021/03/17 06:05:38;;;;;;;14.35;8.450001;;;;;;;1.17;100;95423.22;;;;
2021/03/17 06:06:40;;;;;;;14.35;8.450001;;;;;;;1.17;100;95423.22;;;;
2021/03/17 06:07:44;;;;;;;14.35;8.450001;;;;;;;1.17;100;95423.22;;;;
2021/03/17 06:08:54;;;;;;;14.35;8.450001;;;;;;;1.17;100;95423.22;;;;
2021/03/17 06:09:59;;;;;;;14.35;8.450001;;;;;;;1.17;100;95423.22;;;;
2021/03/17 06:11:02;;;;;;;14.35;8.450001;;;;;;;1.17;100;95423.22;;;;
2021/03/17 06:12:03;;;;;;;14.35;8.450001;;;;;;;1.17;100;95423.22;;;;
2021/03/17 06:13:09;;;;;;;14.35;8.450001;;;;;;;1.17;100;95423.22;;;;
2021/03/17 06:14:12;;;;;;;15.45;8.849999;;;;;;;1.25;100;95433.91;;;;
2021/03/17 06:15:17;;;;;;;15.45;8.849999;;;;;;;1.25;100;95433.91;;;;
2021/03/17 06:16:22;;;;;;;15.45;8.849999;;;;;;;1.25;100;95433.91;;;;
2021/03/17 06:17:24;;;;;;;15.45;8.849999;;;;;;;1.25;100;95433.91;;;;
2021/03/17 06:18:26;;;;;;;15.45;8.849999;;;;;;;1.25;100;95433.91;;;;
2021/03/17 06:19:29;;;;;;;15.45;8.849999;;;;;;;1.25;100;95433.91;;;;
2021/03/17 06:20:33;;;;;;;15.45;8.849999;;;;;;;1.25;100;95433.91;;;;
2021/03/17 06:21:35;;;;;;;15.45;8.849999;;;;;;;1.25;100;95433.91;;;;
2021/03/17 06:22:37;;;;;;;15.45;8.849999;;;;;;;1.25;100;95433.91;;;;
2021/03/17 06:23:37;;;;;;;15.45;8.849999;;;;;;;1.25;100;95433.91;;;;
2021/03/17 06:24:39;;;;;;;16.8;9.299999;;;;;;;1.54;100;95453.09;;;;